sensor_id;sensor_type;location;lat;lon;timestamp;P1;durP1;ratioP1;P2;durP2;ratioP2
13238;SDS011;6686;51.292;4.166;2023-06-24T00:01:26;7.37;;;6.57;;
13238;SDS011;6686;51.292;4.166;2023-06-24T00:04:12;7.83;;;6.20;;
13238;SDS011;6686;51.292;4.166;2023-06-24T00:06:59;8.00;;;6.77;;
13238;SDS011;6686;51.292;4.166;2023-06-24T00:09:44;7.33;;;6.30;;
13238;SDS011;6686;51.292;4.166;2023-06-24T00:12:30;6.87;;;6.17;;
13238;SDS011;6686;51.292;4.166;2023-06-24T00:15:16;7.13;;;6.30;;
13238;SDS011;6686;51.292;4.166;2023-06-24T00:18:01;6.87;;;5.60;;
13238;SDS011;6686;51.292;4.166;2023-06-24T00:20:47;8.17;;;6.33;;
13238;SDS011;6686;51.292;4.166;2023-06-24T00:23:34;8.80;;;6.60;;
13238;SDS011;6686;51.292;4.166;2023-06-24T00:26:20;7.40;;;6.23;;
13238;SDS011;6686;51.292;4.166;2023-06-24T00:29:06;8.43;;;6.50;;
13238;SDS011;6686;51.292;4.166;2023-06-24T00:31:51;10.83;;;7.10;;
13238;SDS011;6686;51.292;4.166;2023-06-24T00:34:37;9.00;;;7.37;;
13238;SDS011;6686;51.292;4.166;2023-06-24T00:37:24;9.83;;;8.10;;
13238;SDS011;6686;51.292;4.166;2023-06-24T00:40:10;12.30;;;8.73;;
13238;SDS011;6686;51.292;4.166;2023-06-24T00:42:56;11.03;;;8.37;;
13238;SDS011;6686;51.292;4.166;2023-06-24T00:45:42;10.67;;;7.63;;
13238;SDS011;6686;51.292;4.166;2023-06-24T00:48:28;8.43;;;7.50;;
13238;SDS011;6686;51.292;4.166;2023-06-24T00:51:14;8.07;;;7.27;;
13238;SDS011;6686;51.292;4.166;2023-06-24T00:54:00;9.10;;;8.20;;
13238;SDS011;6686;51.292;4.166;2023-06-24T00:56:46;10.18;;;8.93;;
13238;SDS011;6686;51.292;4.166;2023-06-24T00:59:32;9.63;;;8.07;;
13238;SDS011;6686;51.292;4.166;2023-06-24T01:02:20;10.93;;;8.10;;
13238;SDS011;6686;51.292;4.166;2023-06-24T01:05:05;9.50;;;8.17;;
13238;SDS011;6686;51.292;4.166;2023-06-24T01:07:54;11.30;;;8.40;;
13238;SDS011;6686;51.292;4.166;2023-06-24T01:10:41;11.17;;;8.27;;
13238;SDS011;6686;51.292;4.166;2023-06-24T01:13:26;10.13;;;8.53;;
13238;SDS011;6686;51.292;4.166;2023-06-24T01:16:14;11.37;;;8.60;;
13238;SDS011;6686;51.292;4.166;2023-06-24T01:18:59;11.93;;;8.73;;
13238;SDS011;6686;51.292;4.166;2023-06-24T01:33:58;13.95;;;10.27;;
13238;SDS011;6686;51.292;4.166;2023-06-24T01:36:41;11.33;;;9.00;;
13238;SDS011;6686;51.292;4.166;2023-06-24T01:39:26;12.73;;;9.37;;
13238;SDS011;6686;51.292;4.166;2023-06-24T01:42:13;11.23;;;9.30;;
13238;SDS011;6686;51.292;4.166;2023-06-24T01:44:58;12.40;;;10.83;;
13238;SDS011;6686;51.292;4.166;2023-06-24T01:47:44;11.30;;;9.67;;
13238;SDS011;6686;51.292;4.166;2023-06-24T01:50:31;15.80;;;9.40;;
13238;SDS011;6686;51.292;4.166;2023-06-24T01:53:16;10.90;;;9.80;;
13238;SDS011;6686;51.292;4.166;2023-06-24T01:56:02;9.80;;;8.10;;
13238;SDS011;6686;51.292;4.166;2023-06-24T01:58:48;9.80;;;8.80;;
13238;SDS011;6686;51.292;4.166;2023-06-24T02:01:35;11.40;;;9.13;;
13238;SDS011;6686;51.292;4.166;2023-06-24T02:04:20;11.17;;;9.43;;
13238;SDS011;6686;51.292;4.166;2023-06-24T02:07:07;11.87;;;9.60;;
13238;SDS011;6686;51.292;4.166;2023-06-24T02:09:52;10.30;;;9.23;;
13238;SDS011;6686;51.292;4.166;2023-06-24T02:12:38;10.57;;;9.33;;
13238;SDS011;6686;51.292;4.166;2023-06-24T02:15:24;11.07;;;9.40;;
13238;SDS011;6686;51.292;4.166;2023-06-24T02:18:10;11.03;;;9.40;;
13238;SDS011;6686;51.292;4.166;2023-06-24T02:20:56;12.27;;;8.77;;
13238;SDS011;6686;51.292;4.166;2023-06-24T02:23:42;10.83;;;9.23;;
13238;SDS011;6686;51.292;4.166;2023-06-24T02:26:28;12.80;;;10.15;;
13238;SDS011;6686;51.292;4.166;2023-06-24T02:29:14;12.97;;;10.37;;
13238;SDS011;6686;51.292;4.166;2023-06-24T02:32:00;10.47;;;8.97;;
13238;SDS011;6686;51.292;4.166;2023-06-24T02:34:46;12.97;;;9.27;;
13238;SDS011;6686;51.292;4.166;2023-06-24T02:37:32;12.90;;;9.50;;
13238;SDS011;6686;51.292;4.166;2023-06-24T02:40:17;11.43;;;9.43;;
13238;SDS011;6686;51.292;4.166;2023-06-24T02:43:03;12.60;;;9.10;;
13238;SDS011;6686;51.292;4.166;2023-06-24T02:45:49;13.13;;;8.43;;
13238;SDS011;6686;51.292;4.166;2023-06-24T02:48:34;11.00;;;9.03;;
13238;SDS011;6686;51.292;4.166;2023-06-24T02:51:20;10.00;;;9.00;;
13238;SDS011;6686;51.292;4.166;2023-06-24T02:54:06;11.03;;;8.80;;
13238;SDS011;6686;51.292;4.166;2023-06-24T02:56:52;9.70;;;8.60;;
13238;SDS011;6686;51.292;4.166;2023-06-24T02:59:38;12.63;;;8.80;;
13238;SDS011;6686;51.292;4.166;2023-06-24T03:02:24;9.83;;;8.80;;
13238;SDS011;6686;51.292;4.166;2023-06-24T03:05:10;11.10;;;9.20;;
13238;SDS011;6686;51.292;4.166;2023-06-24T03:07:57;10.50;;;8.60;;
13238;SDS011;6686;51.292;4.166;2023-06-24T03:10:42;11.57;;;8.33;;
13238;SDS011;6686;51.292;4.166;2023-06-24T03:13:28;10.03;;;8.80;;
13238;SDS011;6686;51.292;4.166;2023-06-24T03:16:15;9.23;;;7.87;;
13238;SDS011;6686;51.292;4.166;2023-06-24T03:19:01;10.57;;;8.33;;
13238;SDS011;6686;51.292;4.166;2023-06-24T03:21:47;9.37;;;7.97;;
13238;SDS011;6686;51.292;4.166;2023-06-24T03:24:32;9.00;;;7.13;;
13238;SDS011;6686;51.292;4.166;2023-06-24T03:27:19;8.67;;;7.77;;
13238;SDS011;6686;51.292;4.166;2023-06-24T03:30:05;8.13;;;7.27;;
13238;SDS011;6686;51.292;4.166;2023-06-24T03:32:51;11.30;;;7.70;;
13238;SDS011;6686;51.292;4.166;2023-06-24T03:35:37;7.83;;;6.80;;
13238;SDS011;6686;51.292;4.166;2023-06-24T03:38:23;7.40;;;6.70;;
13238;SDS011;6686;51.292;4.166;2023-06-24T03:41:09;8.47;;;6.87;;
13238;SDS011;6686;51.292;4.166;2023-06-24T03:43:55;10.87;;;6.80;;
13238;SDS011;6686;51.292;4.166;2023-06-24T03:46:41;7.57;;;6.53;;
13238;SDS011;6686;51.292;4.166;2023-06-24T03:49:27;9.20;;;6.17;;
13238;SDS011;6686;51.292;4.166;2023-06-24T03:52:13;8.77;;;6.83;;
13238;SDS011;6686;51.292;4.166;2023-06-24T03:54:59;9.73;;;7.13;;
13238;SDS011;6686;51.292;4.166;2023-06-24T03:57:45;8.60;;;6.50;;
13238;SDS011;6686;51.292;4.166;2023-06-24T04:00:30;8.03;;;6.47;;
13238;SDS011;6686;51.292;4.166;2023-06-24T04:03:16;10.23;;;7.00;;
13238;SDS011;6686;51.292;4.166;2023-06-24T04:06:02;10.20;;;7.23;;
13238;SDS011;6686;51.292;4.166;2023-06-24T04:08:47;8.60;;;7.07;;
13238;SDS011;6686;51.292;4.166;2023-06-24T04:11:33;9.33;;;6.53;;
13238;SDS011;6686;51.292;4.166;2023-06-24T04:14:19;8.27;;;6.70;;
13238;SDS011;6686;51.292;4.166;2023-06-24T04:17:06;7.17;;;6.43;;
13238;SDS011;6686;51.292;4.166;2023-06-24T04:19:52;8.50;;;6.43;;
13238;SDS011;6686;51.292;4.166;2023-06-24T04:22:40;10.17;;;7.63;;
13238;SDS011;6686;51.292;4.166;2023-06-24T04:25:24;7.93;;;6.30;;
13238;SDS011;6686;51.292;4.166;2023-06-24T04:28:09;9.33;;;6.47;;
13238;SDS011;6686;51.292;4.166;2023-06-24T04:30:56;8.23;;;6.80;;
13238;SDS011;6686;51.292;4.166;2023-06-24T04:33:41;7.23;;;6.40;;
13238;SDS011;6686;51.292;4.166;2023-06-24T04:36:27;10.33;;;6.73;;
13238;SDS011;6686;51.292;4.166;2023-06-24T04:39:13;7.70;;;6.20;;
13238;SDS011;6686;51.292;4.166;2023-06-24T04:41:59;7.67;;;6.87;;
13238;SDS011;6686;51.292;4.166;2023-06-24T04:44:45;7.93;;;7.13;;
13238;SDS011;6686;51.292;4.166;2023-06-24T04:47:31;10.70;;;6.90;;
13238;SDS011;6686;51.292;4.166;2023-06-24T04:50:17;8.33;;;6.50;;
13238;SDS011;6686;51.292;4.166;2023-06-24T04:53:03;8.10;;;6.40;;
13238;SDS011;6686;51.292;4.166;2023-06-24T04:55:48;10.20;;;6.97;;
13238;SDS011;6686;51.292;4.166;2023-06-24T04:58:34;8.27;;;6.70;;
13238;SDS011;6686;51.292;4.166;2023-06-24T05:01:21;8.63;;;6.80;;
13238;SDS011;6686;51.292;4.166;2023-06-24T05:04:06;8.57;;;6.27;;
13238;SDS011;6686;51.292;4.166;2023-06-24T05:06:52;8.67;;;7.40;;
13238;SDS011;6686;51.292;4.166;2023-06-24T05:09:38;9.20;;;7.13;;
13238;SDS011;6686;51.292;4.166;2023-06-24T05:12:24;9.50;;;7.30;;
13238;SDS011;6686;51.292;4.166;2023-06-24T05:15:10;7.63;;;6.83;;
13238;SDS011;6686;51.292;4.166;2023-06-24T05:17:55;8.07;;;6.90;;
13238;SDS011;6686;51.292;4.166;2023-06-24T05:20:41;8.33;;;6.93;;
13238;SDS011;6686;51.292;4.166;2023-06-24T05:23:27;9.43;;;8.37;;
13238;SDS011;6686;51.292;4.166;2023-06-24T05:26:13;9.40;;;7.90;;
13238;SDS011;6686;51.292;4.166;2023-06-24T05:28:59;11.10;;;8.17;;
13238;SDS011;6686;51.292;4.166;2023-06-24T05:31:45;10.30;;;7.40;;
13238;SDS011;6686;51.292;4.166;2023-06-24T05:34:31;10.93;;;7.90;;
13238;SDS011;6686;51.292;4.166;2023-06-24T05:37:17;12.10;;;8.93;;
13238;SDS011;6686;51.292;4.166;2023-06-24T05:40:03;10.25;;;8.43;;
13238;SDS011;6686;51.292;4.166;2023-06-24T05:42:49;9.90;;;8.83;;
13238;SDS011;6686;51.292;4.166;2023-06-24T05:45:35;9.23;;;7.57;;
13238;SDS011;6686;51.292;4.166;2023-06-24T05:48:20;8.33;;;7.53;;
13238;SDS011;6686;51.292;4.166;2023-06-24T05:51:06;10.73;;;7.37;;
13238;SDS011;6686;51.292;4.166;2023-06-24T05:53:52;8.73;;;7.47;;
13238;SDS011;6686;51.292;4.166;2023-06-24T05:56:38;10.23;;;7.43;;
13238;SDS011;6686;51.292;4.166;2023-06-24T05:59:24;7.82;;;6.75;;
13238;SDS011;6686;51.292;4.166;2023-06-24T06:02:10;10.20;;;8.43;;
13238;SDS011;6686;51.292;4.166;2023-06-24T06:04:56;7.95;;;7.20;;
13238;SDS011;6686;51.292;4.166;2023-06-24T06:07:42;10.20;;;7.18;;
13238;SDS011;6686;51.292;4.166;2023-06-24T06:10:28;9.52;;;8.32;;
13238;SDS011;6686;51.292;4.166;2023-06-24T06:13:14;7.80;;;7.00;;
13238;SDS011;6686;51.292;4.166;2023-06-24T06:16:00;8.35;;;7.35;;
13238;SDS011;6686;51.292;4.166;2023-06-24T06:18:45;8.85;;;7.05;;
13238;SDS011;6686;51.292;4.166;2023-06-24T06:21:32;8.80;;;7.80;;
13238;SDS011;6686;51.292;4.166;2023-06-24T06:24:18;9.88;;;7.65;;
13238;SDS011;6686;51.292;4.166;2023-06-24T06:27:04;8.48;;;7.40;;
13238;SDS011;6686;51.292;4.166;2023-06-24T06:29:50;17.65;;;9.75;;
13238;SDS011;6686;51.292;4.166;2023-06-24T06:32:36;10.13;;;8.30;;
13238;SDS011;6686;51.292;4.166;2023-06-24T06:35:22;8.98;;;7.87;;
13238;SDS011;6686;51.292;4.166;2023-06-24T06:38:08;9.07;;;7.57;;
13238;SDS011;6686;51.292;4.166;2023-06-24T06:40:53;10.55;;;8.05;;
13238;SDS011;6686;51.292;4.166;2023-06-24T06:43:40;15.20;;;8.93;;
13238;SDS011;6686;51.292;4.166;2023-06-24T06:46:25;9.68;;;7.85;;
13238;SDS011;6686;51.292;4.166;2023-06-24T06:49:11;14.60;;;8.68;;
13238;SDS011;6686;51.292;4.166;2023-06-24T06:51:57;9.55;;;8.00;;
13238;SDS011;6686;51.292;4.166;2023-06-24T06:54:43;11.23;;;9.75;;
13238;SDS011;6686;51.292;4.166;2023-06-24T06:57:29;11.38;;;9.48;;
13238;SDS011;6686;51.292;4.166;2023-06-24T07:00:15;11.50;;;9.40;;
13238;SDS011;6686;51.292;4.166;2023-06-24T07:03:01;9.23;;;8.25;;
13238;SDS011;6686;51.292;4.166;2023-06-24T07:05:47;12.82;;;9.95;;
13238;SDS011;6686;51.292;4.166;2023-06-24T07:08:33;11.00;;;9.80;;
13238;SDS011;6686;51.292;4.166;2023-06-24T07:11:20;10.82;;;8.88;;
13238;SDS011;6686;51.292;4.166;2023-06-24T07:14:06;9.15;;;8.25;;
13238;SDS011;6686;51.292;4.166;2023-06-24T07:16:52;11.00;;;9.85;;
13238;SDS011;6686;51.292;4.166;2023-06-24T07:19:38;10.13;;;9.13;;
13238;SDS011;6686;51.292;4.166;2023-06-24T07:22:24;11.95;;;10.65;;
13238;SDS011;6686;51.292;4.166;2023-06-24T07:25:10;10.85;;;9.10;;
13238;SDS011;6686;51.292;4.166;2023-06-24T07:27:56;12.43;;;9.95;;
13238;SDS011;6686;51.292;4.166;2023-06-24T07:30:42;9.88;;;8.88;;
13238;SDS011;6686;51.292;4.166;2023-06-24T07:33:29;10.00;;;9.00;;
13238;SDS011;6686;51.292;4.166;2023-06-24T07:36:15;9.80;;;8.68;;
13238;SDS011;6686;51.292;4.166;2023-06-24T07:39:01;10.43;;;9.32;;
13238;SDS011;6686;51.292;4.166;2023-06-24T07:41:47;11.73;;;9.75;;
13238;SDS011;6686;51.292;4.166;2023-06-24T07:44:37;10.15;;;9.13;;
13238;SDS011;6686;51.292;4.166;2023-06-24T07:47:26;12.40;;;9.77;;
13238;SDS011;6686;51.292;4.166;2023-06-24T07:50:12;16.05;;;10.75;;
13238;SDS011;6686;51.292;4.166;2023-06-24T07:53:01;12.88;;;10.10;;
13238;SDS011;6686;51.292;4.166;2023-06-24T07:56:10;10.65;;;9.55;;
13238;SDS011;6686;51.292;4.166;2023-06-24T07:58:45;13.07;;;10.23;;
13238;SDS011;6686;51.292;4.166;2023-06-24T08:01:31;13.25;;;10.85;;
13238;SDS011;6686;51.292;4.166;2023-06-24T08:04:18;16.15;;;11.95;;
13238;SDS011;6686;51.292;4.166;2023-06-24T08:07:04;14.27;;;10.57;;
13238;SDS011;6686;51.292;4.166;2023-06-24T08:09:50;12.93;;;11.23;;
13238;SDS011;6686;51.292;4.166;2023-06-24T08:12:37;14.05;;;9.80;;
13238;SDS011;6686;51.292;4.166;2023-06-24T08:15:23;12.70;;;10.45;;
13238;SDS011;6686;51.292;4.166;2023-06-24T08:18:16;15.02;;;11.50;;
13238;SDS011;6686;51.292;4.166;2023-06-24T08:20:58;12.05;;;10.68;;
13238;SDS011;6686;51.292;4.166;2023-06-24T08:23:47;14.65;;;11.05;;
13238;SDS011;6686;51.292;4.166;2023-06-24T08:26:33;11.10;;;9.93;;
13238;SDS011;6686;51.292;4.166;2023-06-24T08:29:25;12.02;;;10.70;;
13238;SDS011;6686;51.292;4.166;2023-06-24T08:32:14;14.27;;;11.50;;
13238;SDS011;6686;51.292;4.166;2023-06-24T08:34:57;13.10;;;11.20;;
13238;SDS011;6686;51.292;4.166;2023-06-24T08:37:42;13.77;;;11.18;;
13238;SDS011;6686;51.292;4.166;2023-06-24T08:40:28;12.93;;;11.45;;
13238;SDS011;6686;51.292;4.166;2023-06-24T08:43:15;13.32;;;10.57;;
13238;SDS011;6686;51.292;4.166;2023-06-24T08:46:02;13.25;;;10.52;;
13238;SDS011;6686;51.292;4.166;2023-06-24T08:48:48;12.33;;;11.00;;
13238;SDS011;6686;51.292;4.166;2023-06-24T08:51:35;14.05;;;9.80;;
13238;SDS011;6686;51.292;4.166;2023-06-24T08:54:20;12.52;;;11.32;;
13238;SDS011;6686;51.292;4.166;2023-06-24T08:57:06;12.88;;;11.20;;
13238;SDS011;6686;51.292;4.166;2023-06-24T08:59:58;12.23;;;10.70;;
13238;SDS011;6686;51.292;4.166;2023-06-24T09:02:43;12.13;;;9.23;;
13238;SDS011;6686;51.292;4.166;2023-06-24T09:05:29;10.70;;;9.30;;
13238;SDS011;6686;51.292;4.166;2023-06-24T09:08:17;11.00;;;9.07;;
13238;SDS011;6686;51.292;4.166;2023-06-24T09:11:03;11.80;;;8.77;;
13238;SDS011;6686;51.292;4.166;2023-06-24T09:13:56;9.85;;;8.85;;
13238;SDS011;6686;51.292;4.166;2023-06-24T09:17:01;9.63;;;7.85;;
13238;SDS011;6686;51.292;4.166;2023-06-24T09:19:40;9.18;;;8.27;;
13238;SDS011;6686;51.292;4.166;2023-06-24T09:22:28;11.73;;;8.82;;
13238;SDS011;6686;51.292;4.166;2023-06-24T09:25:26;9.73;;;8.65;;
13238;SDS011;6686;51.292;4.166;2023-06-24T09:28:07;9.30;;;8.30;;
13238;SDS011;6686;51.292;4.166;2023-06-24T09:31:06;8.60;;;6.72;;
13238;SDS011;6686;51.292;4.166;2023-06-24T09:33:56;7.78;;;6.90;;
13238;SDS011;6686;51.292;4.166;2023-06-24T09:36:50;11.07;;;7.55;;
13238;SDS011;6686;51.292;4.166;2023-06-24T09:40:09;7.90;;;7.10;;
13238;SDS011;6686;51.292;4.166;2023-06-24T09:42:29;8.38;;;7.15;;
13238;SDS011;6686;51.292;4.166;2023-06-24T09:45:35;9.40;;;7.20;;
13238;SDS011;6686;51.292;4.166;2023-06-24T09:48:11;8.43;;;7.55;;
13238;SDS011;6686;51.292;4.166;2023-06-24T09:51:04;14.13;;;8.93;;
13238;SDS011;6686;51.292;4.166;2023-06-24T09:54:05;6.90;;;5.95;;
13238;SDS011;6686;51.292;4.166;2023-06-24T09:56:48;6.55;;;5.95;;
13238;SDS011;6686;51.292;4.166;2023-06-24T09:59:34;8.30;;;5.75;;
13238;SDS011;6686;51.292;4.166;2023-06-24T10:02:19;6.05;;;5.32;;
13238;SDS011;6686;51.292;4.166;2023-06-24T10:05:05;8.60;;;7.30;;
13238;SDS011;6686;51.292;4.166;2023-06-24T10:07:51;7.70;;;6.90;;
13238;SDS011;6686;51.292;4.166;2023-06-24T10:10:38;8.82;;;5.95;;
13238;SDS011;6686;51.292;4.166;2023-06-24T10:13:26;6.87;;;5.45;;
13238;SDS011;6686;51.292;4.166;2023-06-24T10:16:21;6.72;;;6.03;;
13238;SDS011;6686;51.292;4.166;2023-06-24T10:19:10;5.43;;;4.25;;
13238;SDS011;6686;51.292;4.166;2023-06-24T10:21:59;7.10;;;5.68;;
13238;SDS011;6686;51.292;4.166;2023-06-24T10:24:52;5.53;;;4.85;;
13238;SDS011;6686;51.292;4.166;2023-06-24T10:27:39;9.27;;;7.22;;
13238;SDS011;6686;51.292;4.166;2023-06-24T10:30:25;7.05;;;5.95;;
13238;SDS011;6686;51.292;4.166;2023-06-24T10:33:10;9.20;;;6.45;;
13238;SDS011;6686;51.292;4.166;2023-06-24T10:35:56;5.87;;;5.12;;
13238;SDS011;6686;51.292;4.166;2023-06-24T10:38:42;9.55;;;6.12;;
13238;SDS011;6686;51.292;4.166;2023-06-24T10:41:28;9.20;;;5.87;;
13238;SDS011;6686;51.292;4.166;2023-06-24T10:44:14;6.87;;;5.50;;
13238;SDS011;6686;51.292;4.166;2023-06-24T10:46:59;6.75;;;5.15;;
13238;SDS011;6686;51.292;4.166;2023-06-24T10:49:45;5.93;;;5.32;;
13238;SDS011;6686;51.292;4.166;2023-06-24T10:52:31;7.68;;;4.70;;
13238;SDS011;6686;51.292;4.166;2023-06-24T10:55:21;5.97;;;5.30;;
13238;SDS011;6686;51.292;4.166;2023-06-24T10:58:09;4.87;;;4.05;;
13238;SDS011;6686;51.292;4.166;2023-06-24T11:01:05;7.05;;;4.70;;
13238;SDS011;6686;51.292;4.166;2023-06-24T11:03:41;11.15;;;6.60;;
13238;SDS011;6686;51.292;4.166;2023-06-24T11:06:27;6.75;;;5.80;;
13238;SDS011;6686;51.292;4.166;2023-06-24T11:09:20;9.30;;;6.60;;
13238;SDS011;6686;51.292;4.166;2023-06-24T11:12:04;5.93;;;5.18;;
13238;SDS011;6686;51.292;4.166;2023-06-24T11:14:50;6.90;;;6.00;;
13238;SDS011;6686;51.292;4.166;2023-06-24T11:17:36;9.45;;;7.70;;
13238;SDS011;6686;51.292;4.166;2023-06-24T11:20:25;7.50;;;6.10;;
13238;SDS011;6686;51.292;4.166;2023-06-24T11:23:11;7.22;;;6.53;;
13238;SDS011;6686;51.292;4.166;2023-06-24T11:26:00;7.85;;;6.87;;
13238;SDS011;6686;51.292;4.166;2023-06-24T11:28:47;9.77;;;8.77;;
13238;SDS011;6686;51.292;4.166;2023-06-24T11:31:31;8.90;;;6.93;;
13238;SDS011;6686;51.292;4.166;2023-06-24T11:34:17;6.90;;;5.70;;
13238;SDS011;6686;51.292;4.166;2023-06-24T11:37:13;5.80;;;4.82;;
13238;SDS011;6686;51.292;4.166;2023-06-24T11:40:02;9.48;;;6.30;;
13238;SDS011;6686;51.292;4.166;2023-06-24T11:42:53;8.40;;;7.12;;
13238;SDS011;6686;51.292;4.166;2023-06-24T11:45:40;7.93;;;6.10;;
13238;SDS011;6686;51.292;4.166;2023-06-24T11:48:29;9.95;;;6.30;;
13238;SDS011;6686;51.292;4.166;2023-06-24T11:51:14;9.15;;;7.28;;
13238;SDS011;6686;51.292;4.166;2023-06-24T11:54:02;7.80;;;6.32;;
13238;SDS011;6686;51.292;4.166;2023-06-24T11:56:50;8.50;;;6.65;;
13238;SDS011;6686;51.292;4.166;2023-06-24T11:59:43;8.70;;;7.78;;
13238;SDS011;6686;51.292;4.166;2023-06-24T12:02:24;11.35;;;8.23;;
13238;SDS011;6686;51.292;4.166;2023-06-24T12:05:10;10.35;;;7.78;;
13238;SDS011;6686;51.292;4.166;2023-06-24T12:08:01;10.98;;;7.60;;
13238;SDS011;6686;51.292;4.166;2023-06-24T12:10:43;11.88;;;8.05;;
13238;SDS011;6686;51.292;4.166;2023-06-24T12:13:28;12.68;;;9.65;;
13238;SDS011;6686;51.292;4.166;2023-06-24T12:16:15;15.18;;;10.02;;
13238;SDS011;6686;51.292;4.166;2023-06-24T12:19:02;15.52;;;11.10;;
13238;SDS011;6686;51.292;4.166;2023-06-24T12:21:47;10.95;;;8.35;;
13238;SDS011;6686;51.292;4.166;2023-06-24T12:24:34;10.60;;;9.50;;
13238;SDS011;6686;51.292;4.166;2023-06-24T12:27:19;10.60;;;9.50;;
13238;SDS011;6686;51.292;4.166;2023-06-24T12:30:12;11.10;;;9.50;;
13238;SDS011;6686;51.292;4.166;2023-06-24T12:33:01;12.75;;;10.32;;
13238;SDS011;6686;51.292;4.166;2023-06-24T12:35:47;11.88;;;9.15;;
13238;SDS011;6686;51.292;4.166;2023-06-24T12:38:33;11.48;;;10.20;;
13238;SDS011;6686;51.292;4.166;2023-06-24T12:41:19;13.45;;;10.55;;
13238;SDS011;6686;51.292;4.166;2023-06-24T12:44:05;11.65;;;9.65;;
13238;SDS011;6686;51.292;4.166;2023-06-24T12:46:51;13.02;;;11.63;;
13238;SDS011;6686;51.292;4.166;2023-06-24T12:49:37;15.05;;;13.45;;
13238;SDS011;6686;51.292;4.166;2023-06-24T12:52:23;14.57;;;12.68;;
13238;SDS011;6686;51.292;4.166;2023-06-24T12:55:12;13.45;;;10.68;;
13238;SDS011;6686;51.292;4.166;2023-06-24T12:57:58;15.88;;;11.43;;
13238;SDS011;6686;51.292;4.166;2023-06-24T13:00:44;15.75;;;10.80;;
13238;SDS011;6686;51.292;4.166;2023-06-24T13:03:30;16.05;;;11.60;;
13238;SDS011;6686;51.292;4.166;2023-06-24T13:06:16;15.13;;;11.15;;
13238;SDS011;6686;51.292;4.166;2023-06-24T13:09:02;13.57;;;12.05;;
13238;SDS011;6686;51.292;4.166;2023-06-24T13:11:48;13.95;;;12.15;;
13238;SDS011;6686;51.292;4.166;2023-06-24T13:14:34;16.42;;;11.27;;
13238;SDS011;6686;51.292;4.166;2023-06-24T13:17:19;13.82;;;10.65;;
13238;SDS011;6686;51.292;4.166;2023-06-24T13:20:06;13.35;;;10.48;;
13238;SDS011;6686;51.292;4.166;2023-06-24T13:22:51;15.25;;;11.70;;
13238;SDS011;6686;51.292;4.166;2023-06-24T13:25:37;14.82;;;11.52;;
13238;SDS011;6686;51.292;4.166;2023-06-24T13:28:24;15.57;;;11.15;;
13238;SDS011;6686;51.292;4.166;2023-06-24T13:31:11;13.27;;;11.45;;
13238;SDS011;6686;51.292;4.166;2023-06-24T13:33:56;12.20;;;10.05;;
13238;SDS011;6686;51.292;4.166;2023-06-24T13:36:44;12.32;;;10.40;;
13238;SDS011;6686;51.292;4.166;2023-06-24T13:39:29;12.70;;;9.70;;
13238;SDS011;6686;51.292;4.166;2023-06-24T13:42:15;12.35;;;10.32;;
13238;SDS011;6686;51.292;4.166;2023-06-24T13:45:02;14.05;;;11.10;;
13238;SDS011;6686;51.292;4.166;2023-06-24T13:47:55;12.65;;;10.18;;
13238;SDS011;6686;51.292;4.166;2023-06-24T13:50:38;16.40;;;11.57;;
13238;SDS011;6686;51.292;4.166;2023-06-24T13:53:24;13.15;;;10.32;;
13238;SDS011;6686;51.292;4.166;2023-06-24T13:56:11;14.30;;;10.68;;
13238;SDS011;6686;51.292;4.166;2023-06-24T13:58:57;11.77;;;9.02;;
13238;SDS011;6686;51.292;4.166;2023-06-24T14:01:43;12.00;;;9.52;;
13238;SDS011;6686;51.292;4.166;2023-06-24T14:04:29;13.07;;;9.70;;
13238;SDS011;6686;51.292;4.166;2023-06-24T14:07:15;12.00;;;8.30;;
13238;SDS011;6686;51.292;4.166;2023-06-24T14:10:00;9.20;;;7.43;;
13238;SDS011;6686;51.292;4.166;2023-06-24T14:12:46;9.23;;;8.07;;
13238;SDS011;6686;51.292;4.166;2023-06-24T14:15:32;11.55;;;8.95;;
13238;SDS011;6686;51.292;4.166;2023-06-24T14:18:18;12.73;;;10.27;;
13238;SDS011;6686;51.292;4.166;2023-06-24T14:21:06;11.90;;;9.82;;
13238;SDS011;6686;51.292;4.166;2023-06-24T14:23:52;12.55;;;10.68;;
13238;SDS011;6686;51.292;4.166;2023-06-24T14:26:38;12.32;;;9.98;;
13238;SDS011;6686;51.292;4.166;2023-06-24T14:29:24;15.68;;;9.52;;
13238;SDS011;6686;51.292;4.166;2023-06-24T14:32:10;14.33;;;11.53;;
13238;SDS011;6686;51.292;4.166;2023-06-24T14:34:56;15.52;;;11.90;;
13238;SDS011;6686;51.292;4.166;2023-06-24T14:37:42;11.60;;;9.98;;
13238;SDS011;6686;51.292;4.166;2023-06-24T14:40:28;11.60;;;10.07;;
13238;SDS011;6686;51.292;4.166;2023-06-24T14:43:13;17.90;;;12.32;;
13238;SDS011;6686;51.292;4.166;2023-06-24T14:45:59;14.05;;;11.35;;
13238;SDS011;6686;51.292;4.166;2023-06-24T14:48:45;12.40;;;11.07;;
13238;SDS011;6686;51.292;4.166;2023-06-24T14:51:31;14.75;;;11.35;;
13238;SDS011;6686;51.292;4.166;2023-06-24T14:54:17;14.25;;;11.15;;
13238;SDS011;6686;51.292;4.166;2023-06-24T14:57:02;14.38;;;10.32;;
13238;SDS011;6686;51.292;4.166;2023-06-24T14:59:48;15.13;;;13.10;;
13238;SDS011;6686;51.292;4.166;2023-06-24T15:02:35;13.62;;;11.20;;
13238;SDS011;6686;51.292;4.166;2023-06-24T15:05:21;15.73;;;12.73;;
13238;SDS011;6686;51.292;4.166;2023-06-24T15:08:07;17.70;;;14.63;;
13238;SDS011;6686;51.292;4.166;2023-06-24T15:10:55;18.05;;;14.82;;
13238;SDS011;6686;51.292;4.166;2023-06-24T15:13:41;15.90;;;13.38;;
13238;SDS011;6686;51.292;4.166;2023-06-24T15:16:27;19.33;;;14.90;;
13238;SDS011;6686;51.292;4.166;2023-06-24T15:19:13;18.53;;;15.50;;
13238;SDS011;6686;51.292;4.166;2023-06-24T15:21:59;16.45;;;12.90;;
13238;SDS011;6686;51.292;4.166;2023-06-24T15:24:46;15.65;;;13.20;;
13238;SDS011;6686;51.292;4.166;2023-06-24T15:27:33;22.15;;;15.20;;
13238;SDS011;6686;51.292;4.166;2023-06-24T15:30:19;18.85;;;15.68;;
13238;SDS011;6686;51.292;4.166;2023-06-24T15:33:04;16.85;;;13.38;;
13238;SDS011;6686;51.292;4.166;2023-06-24T15:35:51;14.55;;;12.43;;
13238;SDS011;6686;51.292;4.166;2023-06-24T15:38:36;17.30;;;13.90;;
13238;SDS011;6686;51.292;4.166;2023-06-24T15:41:22;17.67;;;14.07;;
13238;SDS011;6686;51.292;4.166;2023-06-24T15:44:13;17.20;;;14.50;;
13238;SDS011;6686;51.292;4.166;2023-06-24T15:47:09;13.80;;;11.32;;
13238;SDS011;6686;51.292;4.166;2023-06-24T15:49:54;14.52;;;11.50;;
13238;SDS011;6686;51.292;4.166;2023-06-24T15:52:40;13.57;;;10.25;;
13238;SDS011;6686;51.292;4.166;2023-06-24T15:55:26;17.15;;;12.23;;
13238;SDS011;6686;51.292;4.166;2023-06-24T15:58:12;14.35;;;11.18;;
13238;SDS011;6686;51.292;4.166;2023-06-24T16:00:58;15.07;;;11.50;;
13238;SDS011;6686;51.292;4.166;2023-06-24T16:03:44;14.13;;;11.65;;
13238;SDS011;6686;51.292;4.166;2023-06-24T16:06:30;12.32;;;11.00;;
13238;SDS011;6686;51.292;4.166;2023-06-24T16:09:19;12.80;;;10.55;;
13238;SDS011;6686;51.292;4.166;2023-06-24T16:12:05;14.32;;;11.18;;
13238;SDS011;6686;51.292;4.166;2023-06-24T16:14:52;13.30;;;11.57;;
13238;SDS011;6686;51.292;4.166;2023-06-24T16:17:37;15.63;;;11.55;;
13238;SDS011;6686;51.292;4.166;2023-06-24T16:20:23;13.50;;;10.90;;
13238;SDS011;6686;51.292;4.166;2023-06-24T16:23:10;11.65;;;10.32;;
13238;SDS011;6686;51.292;4.166;2023-06-24T16:25:55;13.50;;;11.00;;
13238;SDS011;6686;51.292;4.166;2023-06-24T16:28:42;14.45;;;12.63;;
13238;SDS011;6686;51.292;4.166;2023-06-24T16:31:28;13.32;;;10.73;;
13238;SDS011;6686;51.292;4.166;2023-06-24T16:34:14;12.40;;;9.90;;
13238;SDS011;6686;51.292;4.166;2023-06-24T16:36:59;12.25;;;10.23;;
13238;SDS011;6686;51.292;4.166;2023-06-24T16:39:45;11.82;;;10.05;;
13238;SDS011;6686;51.292;4.166;2023-06-24T16:42:31;15.20;;;9.90;;
13238;SDS011;6686;51.292;4.166;2023-06-24T16:45:18;11.18;;;9.98;;
13238;SDS011;6686;51.292;4.166;2023-06-24T16:48:03;12.77;;;9.73;;
13238;SDS011;6686;51.292;4.166;2023-06-24T16:50:50;11.10;;;10.00;;
13238;SDS011;6686;51.292;4.166;2023-06-24T16:53:36;12.82;;;10.48;;
13238;SDS011;6686;51.292;4.166;2023-06-24T16:56:22;11.52;;;9.77;;